createdAt,value
2023-09-03T00:00:21.087Z,97867.31
2023-09-03T00:02:23.732Z,97859.03
2023-09-03T00:04:26.377Z,97861.03
2023-09-03T00:06:29.232Z,97857.00
2023-09-03T00:08:30.906Z,97857.22
2023-09-03T00:10:36.261Z,97859.31
2023-09-03T00:12:39.510Z,97862.16
2023-09-03T00:14:42.244Z,97859.81
2023-09-03T00:16:46.317Z,97856.34
2023-09-03T00:18:49.437Z,97854.84
2023-09-03T00:20:58.185Z,97852.28
2023-09-03T00:23:00.892Z,97844.47
2023-09-03T00:25:03.676Z,97852.50
2023-09-03T00:27:06.324Z,97846.56
2023-09-03T00:29:08.981Z,97850.13
2023-09-03T00:31:11.848Z,97846.63
2023-09-03T00:33:15.894Z,97849.22
2023-09-03T00:35:19.118Z,97850.03
2023-09-03T00:37:20.807Z,97844.84
2023-09-03T00:39:23.460Z,97849.22
2023-09-03T00:41:26.161Z,97848.34
2023-09-03T00:43:29.481Z,97851.00
2023-09-03T00:45:32.352Z,97845.72
2023-09-03T00:47:35.445Z,97851.75
2023-09-03T00:49:43.397Z,97847.38
2023-09-03T00:51:46.099Z,97850.13
2023-09-03T00:53:50.741Z,97851.09
2023-09-03T00:55:54.361Z,97850.25
2023-09-03T00:57:57.456Z,97855.63
2023-09-03T01:00:00.412Z,97857.31
2023-09-03T01:02:03.108Z,97859.97
2023-09-03T01:04:06.410Z,97859.13
2023-09-03T01:06:09.593Z,97855.63
2023-09-03T01:08:13.746Z,97861.03
2023-09-03T01:10:16.946Z,97863.88
2023-09-03T01:12:23.404Z,97866.59
2023-09-03T01:14:34.346Z,97864.06
2023-09-03T01:16:44.536Z,97868.69
2023-09-03T01:18:51.120Z,97865.41
2023-09-03T01:21:17.427Z,97860.22
2023-09-03T01:23:40.626Z,97863.53
2023-09-03T01:25:54.458Z,97866.50
2023-09-03T01:28:06.573Z,97867.63
2023-09-03T01:30:11.179Z,97876.56
2023-09-03T01:32:14.981Z,97877.72
2023-09-03T01:34:18.652Z,97882.13
2023-09-03T01:36:21.403Z,97881.41
2023-09-03T01:38:24.072Z,97885.94
2023-09-03T01:40:26.793Z,97893.88
2023-09-03T01:42:29.425Z,97885.94
2023-09-03T01:44:32.348Z,97887.72
2023-09-03T01:46:45.290Z,97890.25
2023-09-03T01:49:02.128Z,97887.81
2023-09-03T01:51:12.897Z,97888.78
2023-09-03T01:53:22.242Z,97905.66
2023-09-03T01:55:28.251Z,97899.63
2023-09-03T01:57:34.581Z,97893.56
2023-09-03T01:59:41.336Z,97891.13
2023-09-03T02:01:47.290Z,97895.84
2023-09-03T02:03:51.729Z,97902.16
2023-09-03T02:05:54.481Z,97910.28
2023-09-03T02:07:58.536Z,97910.38
2023-09-03T02:10:01.241Z,97913.13
2023-09-03T02:12:04.033Z,97913.13
2023-09-03T02:14:06.738Z,97911.50
2023-09-03T02:16:09.421Z,97912.44
2023-09-03T02:18:13.424Z,97919.50
2023-09-03T02:20:17.078Z,97918.75
2023-09-03T02:22:20.214Z,97922.34
2023-09-03T02:24:22.999Z,97923.22
2023-09-03T02:26:25.669Z,97918.84
2023-09-03T02:28:28.405Z,97926.03
2023-09-03T02:30:31.084Z,97926.09
2023-09-03T02:32:33.905Z,97929.72
2023-09-03T02:34:37.905Z,97928.03
2023-09-03T02:36:40.556Z,97931.50
2023-09-03T02:38:45.192Z,97925.38
2023-09-03T02:40:47.443Z,97926.31
2023-09-03T02:42:50.130Z,97934.22
2023-09-03T02:44:52.774Z,97936.00
2023-09-03T02:46:54.469Z,97938.66
2023-09-03T02:48:57.502Z,97939.59
2023-09-03T02:51:03.161Z,97935.19
2023-09-03T02:53:06.663Z,97936.00
2023-09-03T02:55:11.896Z,97931.78
2023-09-03T02:57:14.534Z,97934.59
2023-09-03T02:59:16.263Z,97937.41
2023-09-03T03:01:20.483Z,97923.38
2023-09-03T03:03:23.258Z,97927.03
2023-09-03T03:05:26.473Z,97920.06
2023-09-03T03:07:29.616Z,97929.69
2023-09-03T03:09:32.319Z,97925.44
2023-09-03T03:11:35.018Z,97922.81
2023-09-03T03:13:39.642Z,97931.66
2023-09-03T03:15:41.504Z,97926.28
2023-09-03T03:17:44.292Z,97926.19
2023-09-03T03:19:50.763Z,97923.63
2023-09-03T03:21:53.418Z,97930.63
2023-09-03T03:23:57.409Z,97931.56
2023-09-03T03:26:00.109Z,97934.28
2023-09-03T03:28:02.755Z,97939.66
2023-09-03T03:30:06.522Z,97935.34
2023-09-03T03:32:09.512Z,97937.13
2023-09-03T03:34:15.194Z,97942.41
2023-09-03T03:36:21.197Z,97934.56
2023-09-03T03:38:23.871Z,97942.50
2023-09-03T03:40:27.856Z,97941.72
2023-09-03T03:42:30.488Z,97942.69
2023-09-03T03:44:33.416Z,97949.75
2023-09-03T03:46:36.192Z,97952.47
2023-09-03T03:48:39.134Z,97949.06
2023-09-03T03:50:41.857Z,97950.09
2023-09-03T03:52:44.516Z,97953.69
2023-09-03T03:54:47.189Z,97966.03
2023-09-03T03:56:51.360Z,97962.72
2023-09-03T03:58:53.065Z,97968.09
2023-09-03T04:00:56.210Z,97976.00
2023-09-03T04:03:00.672Z,97983.91
2023-09-03T04:05:03.533Z,97970.72
2023-09-03T04:07:07.470Z,97953.19
2023-09-03T04:09:10.137Z,97956.75
2023-09-03T04:11:14.462Z,97958.56
2023-09-03T04:13:18.461Z,97961.28
2023-09-03T04:15:21.074Z,97954.41
2023-09-03T04:17:24.212Z,97959.75
2023-09-03T04:19:26.859Z,97969.53
2023-09-03T04:21:29.521Z,97966.88
2023-09-03T04:23:32.210Z,97979.22
2023-09-03T04:25:33.913Z,97978.44
2023-09-03T04:27:36.549Z,97973.19
2023-09-03T04:29:40.540Z,97977.63
2023-09-03T04:31:43.182Z,97976.84
2023-09-03T04:33:44.919Z,97987.50
2023-09-03T04:35:47.620Z,97983.25
2023-09-03T04:37:51.571Z,97993.78
2023-09-03T04:39:54.334Z,97981.56
2023-09-03T04:41:57.639Z,97987.69
2023-09-03T04:44:08.214Z,97993.88
2023-09-03T04:46:13.657Z,97995.66
2023-09-03T04:48:16.461Z,97994.94
2023-09-03T04:50:19.095Z,98006.31
2023-09-03T04:52:21.746Z,98008.13
2023-09-03T04:54:24.923Z,98004.63
2023-09-03T04:56:27.622Z,98008.19
2023-09-03T04:58:30.258Z,98015.16
2023-09-03T05:00:33.679Z,98012.63
2023-09-03T05:02:37.773Z,98019.59
2023-09-03T05:04:40.542Z,98012.63
2023-09-03T05:06:43.227Z,98021.31
2023-09-03T05:08:46.862Z,98020.34
2023-09-03T05:10:49.561Z,98022.13
2023-09-03T05:12:51.240Z,98014.22
2023-09-03T05:14:54.164Z,98014.22
2023-09-03T05:16:56.779Z,98015.16
2023-09-03T05:19:05.815Z,98010.75
2023-09-03T05:21:12.343Z,98013.31
2023-09-03T05:23:14.970Z,98013.38
2023-09-03T05:25:17.926Z,98011.59
2023-09-03T05:27:20.653Z,98010.66
2023-09-03T05:29:23.360Z,98011.50
2023-09-03T05:31:26.081Z,98013.22
2023-09-03T05:33:28.771Z,98013.97
2023-09-03T05:35:32.773Z,98025.38
2023-09-03T05:37:35.557Z,98032.34
2023-09-03T05:39:38.471Z,98035.09
2023-09-03T05:41:41.098Z,98041.09
2023-09-03T05:43:43.730Z,98048.97
2023-09-03T05:45:46.799Z,98060.34
2023-09-03T05:47:49.676Z,98069.97
2023-09-03T05:49:56.123Z,98074.41
2023-09-03T05:52:00.131Z,98076.19
2023-09-03T05:54:02.848Z,98074.50
2023-09-03T05:56:06.109Z,98075.41
2023-09-03T05:58:08.806Z,98076.44
2023-09-03T06:00:12.482Z,98068.44
2023-09-03T06:02:14.212Z,98069.31
2023-09-03T06:04:18.021Z,98064.84
2023-09-03T06:06:20.644Z,98058.56
2023-09-03T06:08:24.644Z,98063.75
2023-09-03T06:10:27.353Z,98064.44
2023-09-03T06:12:29.977Z,98067.16
2023-09-03T06:14:32.898Z,98062.75
2023-09-03T06:16:35.619Z,98057.38
2023-09-03T06:18:38.408Z,98053.81
2023-09-03T06:20:41.122Z,98046.66
2023-09-03T06:22:43.769Z,98058.78
2023-09-03T06:24:47.746Z,98062.22
2023-09-03T06:26:50.420Z,98068.28
2023-09-03T06:28:53.069Z,98067.38
2023-09-03T06:30:58.353Z,98073.22
2023-09-03T06:33:01.136Z,98073.13
2023-09-03T06:35:04.498Z,98075.59
2023-09-03T06:37:08.561Z,98074.59
2023-09-03T06:39:11.213Z,98078.72
2023-09-03T06:41:18.465Z,98072.34
2023-09-03T06:43:21.147Z,98078.31
2023-09-03T06:45:23.800Z,98079.84
2023-09-03T06:47:26.562Z,98078.13
2023-09-03T06:49:29.290Z,98085.03
2023-09-03T06:51:30.982Z,98095.59
2023-09-03T06:53:33.640Z,98090.22
2023-09-03T06:55:36.358Z,98084.84
2023-09-03T06:57:40.355Z,98092.50
2023-09-03T06:59:43.115Z,98094.88
2023-09-03T07:01:45.751Z,98100.84
2023-09-03T07:03:48.437Z,98100.56
2023-09-03T07:05:51.119Z,98101.22
2023-09-03T07:07:53.736Z,98102.78
2023-09-03T07:09:56.509Z,98107.69
2023-09-03T07:11:59.209Z,98118.25
2023-09-03T07:14:03.212Z,98121.66
2023-09-03T07:16:06.519Z,98126.94
2023-09-03T07:18:09.289Z,98125.97
2023-09-03T07:20:12.745Z,98120.03
2023-09-03T07:22:15.454Z,98128.91
2023-09-03T07:24:18.128Z,98130.34
2023-09-03T07:26:20.782Z,98126.84
2023-09-03T07:28:23.650Z,98122.31
2023-09-03T07:30:27.830Z,98130.94
2023-09-03T07:32:30.571Z,98131.50
2023-09-03T07:34:33.506Z,98123.28
2023-09-03T07:36:36.191Z,98131.16
2023-09-03T07:38:39.504Z,98130.19
2023-09-03T07:40:42.206Z,98134.41
2023-09-03T07:42:44.854Z,98134.22
2023-09-03T07:44:47.511Z,98132.16
2023-09-03T07:46:51.566Z,98138.97
2023-09-03T07:48:54.272Z,98138.09
2023-09-03T07:50:56.943Z,98137.91
2023-09-03T07:53:00.318Z,98143.00
2023-09-03T07:55:03.459Z,98143.66
2023-09-03T07:57:06.883Z,98147.84
2023-09-03T07:59:09.592Z,98149.28
2023-09-03T08:01:13.214Z,98152.75
2023-09-03T08:03:17.246Z,98149.09
2023-09-03T08:05:19.246Z,98159.47
2023-09-03T08:07:21.884Z,98160.13
2023-09-03T08:09:25.619Z,98149.34
2023-09-03T08:11:28.967Z,98158.06
2023-09-03T08:13:31.605Z,98157.91
2023-09-03T08:15:43.434Z,98155.97
2023-09-03T08:17:46.860Z,98156.75
2023-09-03T08:19:51.673Z,98154.84
2023-09-03T08:21:54.324Z,98159.94
2023-09-03T08:23:56.961Z,98166.19
2023-09-03T08:26:02.031Z,98158.25
2023-09-03T08:28:06.884Z,98166.00
2023-09-03T08:30:12.268Z,98166.75
2023-09-03T08:32:15.110Z,98168.38
2023-09-03T08:34:17.850Z,98167.22
2023-09-03T08:36:21.741Z,98172.44
2023-09-03T08:38:24.493Z,98170.53
2023-09-03T08:40:27.422Z,98173.09
2023-09-03T08:42:30.700Z,98165.16
2023-09-03T08:44:37.744Z,98168.66
2023-09-03T08:46:44.196Z,98165.81
2023-09-03T08:48:50.686Z,98167.53
2023-09-03T08:50:54.193Z,98168.25
2023-09-03T08:52:59.417Z,98168.19
2023-09-03T08:55:03.276Z,98179.59
2023-09-03T08:57:07.137Z,98175.06
2023-09-03T08:59:11.870Z,98182.09
2023-09-03T09:01:17.765Z,98173.19
2023-09-03T09:03:23.800Z,98173.97
2023-09-03T09:05:26.864Z,98176.63
2023-09-03T09:07:29.966Z,98179.72
2023-09-03T09:09:36.344Z,98170.94
2023-09-03T09:11:41.791Z,98181.41
2023-09-03T09:13:55.192Z,98175.19
2023-09-03T09:15:58.217Z,98178.69
2023-09-03T09:18:01.315Z,98177.75
2023-09-03T09:20:04.816Z,98177.53
2023-09-03T09:22:07.690Z,98187.09
2023-09-03T09:24:10.576Z,98182.56
2023-09-03T09:26:19.013Z,98180.56
2023-09-03T09:28:23.075Z,98184.50
2023-09-03T09:30:31.117Z,98189.63
2023-09-03T09:32:35.079Z,98189.31
2023-09-03T09:34:43.853Z,98192.63
2023-09-03T09:36:56.173Z,98190.75
2023-09-03T09:39:06.882Z,98193.19
2023-09-03T09:41:30.693Z,98193.06
2023-09-03T09:43:47.504Z,98190.16
2023-09-03T09:45:53.116Z,98189.84
2023-09-03T09:48:05.663Z,98191.34
2023-09-03T09:50:08.795Z,98192.00
2023-09-03T09:52:11.720Z,98188.63
2023-09-03T09:54:14.492Z,98191.22
2023-09-03T09:56:20.212Z,98195.22
2023-09-03T09:58:24.268Z,98194.19
2023-09-03T10:00:36.641Z,98197.41
2023-09-03T10:02:39.693Z,98203.38
2023-09-03T10:04:42.963Z,98196.06
2023-09-03T10:06:45.932Z,98202.22
2023-09-03T10:08:51.870Z,98199.47
2023-09-03T10:10:54.997Z,98198.41
2023-09-03T10:12:57.780Z,98195.56
2023-09-03T10:15:01.870Z,98193.63
2023-09-03T10:17:06.638Z,98189.94
2023-09-03T10:19:15.590Z,98191.34
2023-09-03T10:21:26.248Z,98186.69
2023-09-03T10:23:42.160Z,98187.31
2023-09-03T10:25:56.559Z,98192.41
2023-09-03T10:28:09.297Z,98192.19
2023-09-03T10:30:17.675Z,98196.47
2023-09-03T10:32:22.825Z,98205.72
2023-09-03T10:34:25.672Z,98203.66
2023-09-03T10:36:28.673Z,98208.91
2023-09-03T10:38:34.349Z,98204.13
2023-09-03T10:40:37.111Z,98201.34
2023-09-03T10:44:42.934Z,98197.97
2023-09-03T10:47:05.691Z,98194.25
2023-09-03T10:49:09.567Z,98193.19
2023-09-03T10:51:32.191Z,98191.28
2023-09-03T10:53:35.786Z,98178.56
2023-09-03T10:55:39.001Z,98185.56
2023-09-03T10:57:41.124Z,98179.31
2023-09-03T11:00:13.266Z,98177.28
2023-09-03T11:02:30.906Z,98167.41
2023-09-03T11:04:38.598Z,98167.09
2023-09-03T11:06:50.344Z,98166.97
2023-09-03T11:09:25.763Z,98164.84
2023-09-03T11:11:31.610Z,98172.47
2023-09-03T11:13:38.943Z,98182.69
2023-09-03T11:15:58.207Z,98184.13
2023-09-03T11:18:02.321Z,98190.59
2023-09-03T11:20:05.869Z,98177.13
2023-09-03T11:22:08.537Z,98181.13
2023-09-03T11:24:16.145Z,98177.41
2023-09-03T11:26:18.873Z,98178.03
2023-09-03T11:28:21.504Z,98177.91
2023-09-03T11:30:24.369Z,98173.34
2023-09-03T11:32:37.444Z,98172.50
2023-09-03T11:34:44.470Z,98170.56
2023-09-03T11:36:47.288Z,98157.28
2023-09-03T11:38:51.123Z,98162.38
2023-09-03T11:40:57.586Z,98166.50
2023-09-03T11:43:00.333Z,98163.63
2023-09-03T11:45:05.393Z,98161.47
2023-09-03T11:47:08.122Z,98160.31
2023-09-03T11:49:22.983Z,98160.94
2023-09-03T11:51:29.662Z,98156.13
2023-09-03T11:53:39.970Z,98152.41
2023-09-03T11:55:46.882Z,98157.50
2023-09-03T11:57:50.944Z,98154.38
2023-09-03T11:59:53.672Z,98161.91
2023-09-03T12:01:56.701Z,98162.28
2023-09-03T12:04:00.176Z,98171.38
2023-09-03T12:06:05.544Z,98172.72
2023-09-03T12:08:09.863Z,98175.16
2023-09-03T12:10:11.776Z,98164.88
2023-09-03T12:12:14.576Z,98171.56
2023-09-03T12:14:29.549Z,98172.19
2023-09-03T12:16:32.246Z,98170.00
2023-09-03T12:18:35.264Z,98170.66
2023-09-03T12:20:39.883Z,98177.31
2023-09-03T12:22:43.533Z,98186.66
2023-09-03T12:24:49.214Z,98179.03
2023-09-03T12:27:00.679Z,98181.94
2023-09-03T12:29:04.640Z,98181.22
2023-09-03T12:31:08.333Z,98183.66
2023-09-03T12:33:10.259Z,98177.13
2023-09-03T12:35:17.620Z,98176.03
2023-09-03T12:37:20.373Z,98184.72
2023-09-03T12:39:30.005Z,98178.78
2023-09-03T12:41:35.999Z,98180.31
2023-09-03T12:43:38.261Z,98173.56
2023-09-03T12:45:40.910Z,98179.50
2023-09-03T12:47:43.762Z,98170.22
2023-09-03T12:49:46.518Z,98172.28
2023-09-03T12:51:49.484Z,98170.84
2023-09-03T12:53:52.732Z,98168.31
2023-09-03T12:55:56.780Z,98170.41
2023-09-03T12:58:00.846Z,98168.19
2023-09-03T13:00:06.092Z,98179.66
2023-09-03T13:02:08.985Z,98178.16
2023-09-03T13:04:13.131Z,98176.63
2023-09-03T13:06:16.029Z,98169.78
2023-09-03T13:08:17.703Z,98167.09
2023-09-03T13:10:21.436Z,98172.88
2023-09-03T13:12:24.224Z,98175.41
2023-09-03T13:14:28.286Z,98171.63
2023-09-03T13:16:31.087Z,98171.72
2023-09-03T13:18:36.173Z,98176.50
2023-09-03T13:20:40.532Z,98171.81
2023-09-03T13:22:43.574Z,98168.25
2023-09-03T13:24:49.838Z,98174.25
2023-09-03T13:26:53.821Z,98166.09
2023-09-03T13:28:55.525Z,98169.50
2023-09-03T13:31:07.386Z,98168.97
2023-09-03T13:33:11.658Z,98170.91
2023-09-03T13:35:13.573Z,98170.91
2023-09-03T13:37:16.373Z,98173.91
2023-09-03T13:39:19.057Z,98169.34
2023-09-03T13:41:24.084Z,98164.25
2023-09-03T13:43:26.965Z,98172.91
2023-09-03T13:45:29.882Z,98167.69
2023-09-03T13:47:33.035Z,98166.94
2023-09-03T13:49:36.366Z,98172.53
2023-09-03T13:51:40.738Z,98163.75
2023-09-03T13:53:49.253Z,98169.03
2023-09-03T13:55:52.833Z,98161.19
2023-09-03T13:57:56.116Z,98162.88
2023-09-03T13:59:58.099Z,98158.19
2023-09-03T14:02:00.797Z,98151.69
2023-09-03T14:04:06.261Z,98150.84
2023-09-03T14:06:10.507Z,98161.06
2023-09-03T14:08:13.333Z,98156.34
2023-09-03T14:10:16.104Z,98157.38
2023-09-03T14:12:18.740Z,98165.84
2023-09-03T14:14:21.395Z,98162.53
2023-09-03T14:16:24.065Z,98166.22
2023-09-03T14:18:28.893Z,98165.38
2023-09-03T14:20:38.072Z,98160.06
2023-09-03T14:22:43.293Z,98158.09
2023-09-03T14:24:46.734Z,98154.44
2023-09-03T14:26:49.463Z,98150.06
2023-09-03T14:28:55.435Z,98151.06
2023-09-03T14:31:01.986Z,98148.25
2023-09-03T14:33:05.295Z,98152.75
2023-09-03T14:35:08.433Z,98145.72
2023-09-03T14:37:12.738Z,98142.88
2023-09-03T14:39:15.913Z,98142.59
2023-09-03T14:41:17.600Z,98142.31
2023-09-03T14:43:20.505Z,98143.69
2023-09-03T14:45:23.786Z,98140.59
2023-09-03T14:47:26.635Z,98137.38
2023-09-03T14:49:44.164Z,98142.03
2023-09-03T14:51:47.913Z,98149.38
2023-09-03T14:53:53.035Z,98150.47
2023-09-03T14:55:55.717Z,98151.75
2023-09-03T14:57:58.322Z,98146.41
2023-09-03T15:00:01.043Z,98144.13
2023-09-03T15:02:03.881Z,98146.25
2023-09-03T15:04:06.580Z,98137.81
2023-09-03T15:06:09.249Z,98138.81
2023-09-03T15:08:13.112Z,98141.72
2023-09-03T15:10:17.166Z,98135.69
2023-09-03T15:12:18.844Z,98140.88
2023-09-03T15:14:21.460Z,98146.66
2023-09-03T15:16:24.750Z,98142.56
2023-09-03T15:18:26.476Z,98146.50
2023-09-03T15:20:30.869Z,98143.47
2023-09-03T15:22:33.492Z,98148.25
2023-09-03T15:24:37.282Z,98145.00
2023-09-03T15:26:41.335Z,98143.47
2023-09-03T15:28:43.143Z,98146.00
2023-09-03T15:30:45.841Z,98145.28
2023-09-03T15:32:48.578Z,98144.59
2023-09-03T15:34:51.273Z,98143.91
2023-09-03T15:36:53.950Z,98146.97
2023-09-03T15:38:56.576Z,98139.38
2023-09-03T15:40:58.342Z,98136.25
2023-09-03T15:43:02.441Z,98137.63
2023-09-03T15:45:08.382Z,98136.47
2023-09-03T15:47:11.091Z,98137.88
2023-09-03T15:49:13.764Z,98138.13
2023-09-03T15:51:16.407Z,98139.38
2023-09-03T15:53:18.688Z,98136.03
2023-09-03T15:55:21.847Z,98138.94
2023-09-03T15:57:24.487Z,98145.41
2023-09-03T15:59:29.419Z,98140.41
2023-09-03T16:01:32.088Z,98140.81
2023-09-03T16:03:36.368Z,98142.78
2023-09-03T16:05:39.054Z,98145.00
2023-09-03T16:07:41.763Z,98142.88
2023-09-03T16:09:45.041Z,98139.47
2023-09-03T16:11:47.905Z,98143.38
2023-09-03T16:13:50.573Z,98144.50
2023-09-03T16:15:54.659Z,98151.66
2023-09-03T16:17:57.361Z,98148.28
2023-09-03T16:20:00.251Z,98140.25
2023-09-03T16:22:02.967Z,98149.84
2023-09-03T16:24:06.010Z,98157.72
2023-09-03T16:26:08.667Z,98150.66
2023-09-03T16:28:11.317Z,98150.81
2023-09-03T16:30:13.241Z,98156.41
2023-09-03T16:32:17.413Z,98150.50
2023-09-03T16:34:20.126Z,98154.38
2023-09-03T16:36:22.812Z,98156.59
2023-09-03T16:38:25.507Z,98163.19
2023-09-03T16:40:28.170Z,98156.53
2023-09-03T16:42:30.842Z,98160.44
2023-09-03T16:44:33.517Z,98159.97
2023-09-03T16:46:36.257Z,98157.72
2023-09-03T16:48:40.549Z,98154.56
2023-09-03T16:50:47.340Z,98153.09
2023-09-03T16:52:50.233Z,98155.19
2023-09-03T16:54:54.565Z,98156.41
2023-09-03T16:56:56.473Z,98152.31
2023-09-03T16:59:00.218Z,98151.84
2023-09-03T17:01:03.176Z,98149.53
2023-09-03T17:03:06.619Z,98154.41
2023-09-03T17:05:11.316Z,98158.28
2023-09-03T17:07:14.151Z,98161.47
2023-09-03T17:09:16.869Z,98160.88
2023-09-03T17:11:19.577Z,98162.94
2023-09-03T17:13:22.497Z,98155.31
2023-09-03T17:15:25.369Z,98157.53
2023-09-03T17:17:28.023Z,98166.59
2023-09-03T17:19:30.870Z,98158.25
2023-09-03T17:21:33.888Z,98159.47
2023-09-03T17:23:40.141Z,98153.63
2023-09-03T17:25:42.842Z,98157.50
2023-09-03T17:27:45.480Z,98147.22
2023-09-03T17:29:48.264Z,98153.53
2023-09-03T17:31:52.951Z,98153.13
2023-09-03T17:33:55.690Z,98150.97
2023-09-03T17:35:58.432Z,98156.56
2023-09-03T17:38:02.508Z,98151.81
2023-09-03T17:40:06.604Z,98161.13
2023-09-03T17:42:09.246Z,98152.78
2023-09-03T17:44:11.896Z,98157.75
2023-09-03T17:46:14.619Z,98156.28
2023-09-03T17:48:17.910Z,98153.97
2023-09-03T17:50:20.700Z,98156.91
2023-09-03T17:52:23.609Z,98160.88
2023-09-03T17:54:27.587Z,98159.25
2023-09-03T17:56:30.278Z,98157.91
2023-09-03T17:58:32.906Z,98155.59
2023-09-03T18:00:35.991Z,98146.16
2023-09-03T18:02:38.712Z,98155.34
2023-09-03T18:04:41.420Z,98157.41
2023-09-03T18:06:44.083Z,98159.56
2023-09-03T18:08:47.487Z,98166.19
2023-09-03T18:10:51.528Z,98167.38
2023-09-03T18:12:54.239Z,98171.25
2023-09-03T18:14:56.891Z,98173.38
2023-09-03T18:16:59.743Z,98172.03
2023-09-03T18:19:02.406Z,98170.56
2023-09-03T18:21:04.350Z,98179.72
2023-09-03T18:23:07.067Z,98173.06
2023-09-03T18:25:10.676Z,98182.22
2023-09-03T18:27:14.660Z,98176.47
2023-09-03T18:29:17.371Z,98172.56
2023-09-03T18:31:20.063Z,98181.72
2023-09-03T18:33:21.976Z,98179.41
2023-09-03T18:35:24.603Z,98186.84
2023-09-03T18:37:27.284Z,98178.38
2023-09-03T18:39:31.353Z,98188.38
2023-09-03T18:41:34.004Z,98189.53
2023-09-03T18:43:37.963Z,98194.97
2023-09-03T18:45:40.625Z,98196.00
2023-09-03T18:47:43.359Z,98193.38
2023-09-03T18:49:46.391Z,98196.25
2023-09-03T18:51:48.797Z,98188.38
2023-09-03T18:53:51.455Z,98196.59
2023-09-03T18:55:54.164Z,98190.53
2023-09-03T18:57:56.823Z,98202.31
2023-09-03T19:00:00.841Z,98207.00
2023-09-03T19:02:03.590Z,98204.91
2023-09-03T19:04:06.665Z,98204.38
2023-09-03T19:06:11.235Z,98196.72
2023-09-03T19:08:13.923Z,98205.00
2023-09-03T19:10:16.712Z,98200.81
2023-09-03T19:12:19.390Z,98202.84
2023-09-03T19:14:22.051Z,98200.41
2023-09-03T19:16:26.695Z,98197.97
2023-09-03T19:18:29.866Z,98204.31
2023-09-03T19:20:32.503Z,98204.53
2023-09-03T19:22:35.313Z,98205.59
2023-09-03T19:24:37.961Z,98208.34
2023-09-03T19:26:40.624Z,98211.09
2023-09-03T19:28:43.367Z,98210.34
2023-09-03T19:30:46.857Z,98210.34
2023-09-03T19:32:51.376Z,98214.38
2023-09-03T19:34:54.535Z,98210.56
2023-09-03T19:36:57.169Z,98208.53
2023-09-03T19:38:59.792Z,98215.31
2023-09-03T19:41:02.471Z,98219.13
2023-09-03T19:43:05.461Z,98215.81
2023-09-03T19:45:09.318Z,98221.22
2023-09-03T19:47:11.997Z,98216.13
2023-09-03T19:49:16.093Z,98210.91
2023-09-03T19:51:18.808Z,98212.84
2023-09-03T19:53:20.792Z,98219.06
2023-09-03T19:55:23.521Z,98216.63
2023-09-03T19:57:26.259Z,98215.75
2023-09-03T19:59:29.540Z,98214.38
2023-09-03T20:01:32.351Z,98218.03
2023-09-03T20:03:35.634Z,98205.00
2023-09-03T20:05:40.285Z,98219.19
2023-09-03T20:07:45.418Z,98215.78
2023-09-03T20:09:49.438Z,98218.75
2023-09-03T20:11:52.139Z,98214.31
2023-09-03T20:13:57.623Z,98211.22
2023-09-03T20:16:00.465Z,98209.69
2023-09-03T20:18:03.320Z,98208.94
2023-09-03T20:20:07.844Z,98206.41
2023-09-03T20:22:11.829Z,98209.25
2023-09-03T20:24:14.573Z,98208.38
2023-09-03T20:26:17.576Z,98208.59
2023-09-03T20:28:25.787Z,98206.03
2023-09-03T20:30:34.464Z,98206.22
2023-09-03T20:32:37.502Z,98194.91
2023-09-03T20:34:43.597Z,98200.19
2023-09-03T20:36:46.521Z,98201.22
2023-09-03T20:38:50.599Z,98197.94
2023-09-03T20:40:52.946Z,98198.88
2023-09-03T20:42:55.759Z,98199.81
2023-09-03T20:44:58.602Z,98194.72
2023-09-03T20:47:01.333Z,98195.69
2023-09-03T20:49:05.446Z,98193.22
2023-09-03T20:51:08.210Z,98196.81
2023-09-03T20:53:11.918Z,98192.53
2023-09-03T20:55:16.009Z,98191.63
2023-09-03T20:57:18.629Z,98196.25
2023-09-03T20:59:21.494Z,98187.66
2023-09-03T21:01:26.083Z,98188.59
2023-09-03T21:03:28.891Z,98187.00
2023-09-03T21:05:32.467Z,98184.34
2023-09-03T21:07:34.196Z,98190.56
2023-09-03T21:09:37.001Z,98193.31
2023-09-03T21:11:41.143Z,98190.78
2023-09-03T21:13:44.091Z,98187.38
2023-09-03T21:15:46.722Z,98193.53
2023-09-03T21:17:50.032Z,98193.72
2023-09-03T21:19:52.775Z,98197.41
2023-09-03T21:21:55.449Z,98198.34
2023-09-03T21:23:58.248Z,98204.59
2023-09-03T21:26:01.188Z,98203.84
2023-09-03T21:28:04.671Z,98201.38
2023-09-03T21:30:08.430Z,98202.41
2023-09-03T21:32:13.545Z,98187.53
2023-09-03T21:34:16.798Z,98191.34
2023-09-03T21:36:19.051Z,98187.94
2023-09-03T21:38:21.868Z,98193.34
2023-09-03T21:40:24.833Z,98194.56
2023-09-03T21:42:26.547Z,98190.38
2023-09-03T21:44:34.713Z,98194.00
2023-09-03T21:46:37.390Z,98196.06
2023-09-03T21:48:40.046Z,98192.00
2023-09-03T21:50:42.826Z,98187.66
2023-09-03T21:52:44.482Z,98182.44
2023-09-03T21:54:47.121Z,98183.38
2023-09-03T21:56:49.840Z,98177.34
2023-09-03T21:58:52.508Z,98183.59
2023-09-03T22:00:57.215Z,98176.78
2023-09-03T22:02:59.956Z,98174.22
2023-09-03T22:05:06.263Z,98172.53
2023-09-03T22:07:09.201Z,98174.31
2023-09-03T22:09:11.849Z,98176.97
2023-09-03T22:11:14.711Z,98178.75
2023-09-03T22:13:17.456Z,98175.34
2023-09-03T22:15:19.376Z,98179.03
2023-09-03T22:17:23.362Z,98183.56
2023-09-03T22:19:27.010Z,98183.66
2023-09-03T22:21:29.866Z,98187.31
2023-09-03T22:23:31.569Z,98182.97
2023-09-03T22:25:34.211Z,98181.47
2023-09-03T22:27:36.886Z,98191.28
2023-09-03T22:29:39.567Z,98186.06
2023-09-03T22:31:42.334Z,98183.72
2023-09-03T22:33:47.199Z,98189.19
2023-09-03T22:35:48.876Z,98191.91
2023-09-03T22:37:51.548Z,98195.50
2023-09-03T22:39:53.231Z,98195.59
2023-09-03T22:41:56.912Z,98190.41
2023-09-03T22:43:59.860Z,98186.91
2023-09-03T22:46:02.652Z,98193.91
2023-09-03T22:48:05.751Z,98195.69
2023-09-03T22:50:10.821Z,98206.34
2023-09-03T22:52:15.831Z,98201.22
2023-09-03T22:54:18.026Z,98194.25
2023-09-03T22:56:20.677Z,98202.19
2023-09-03T22:58:23.621Z,98204.81
2023-09-03T23:00:26.555Z,98197.84
2023-09-03T23:02:29.244Z,98189.97
2023-09-03T23:04:32.143Z,98186.66
2023-09-03T23:06:36.154Z,98190.66
2023-09-03T23:08:38.830Z,98194.34
2023-09-03T23:10:41.507Z,98190.16
2023-09-03T23:12:44.226Z,98187.63
2023-09-03T23:14:46.880Z,98199.03
2023-09-03T23:16:49.880Z,98199.97
2023-09-03T23:18:52.630Z,98191.13
2023-09-03T23:20:55.159Z,98196.41
2023-09-03T23:22:59.143Z,98204.44
2023-09-03T23:25:02.087Z,98207.16
2023-09-03T23:27:05.046Z,98214.22
2023-09-03T23:29:07.741Z,98216.97
2023-09-03T23:31:10.441Z,98217.88
2023-09-03T23:33:13.088Z,98211.00
2023-09-03T23:35:15.962Z,98212.00
2023-09-03T23:37:17.697Z,98210.31
2023-09-03T23:39:21.708Z,98208.59
2023-09-03T23:41:24.495Z,98204.16
2023-09-03T23:43:27.362Z,98204.25
2023-09-03T23:45:30.097Z,98203.41
2023-09-03T23:47:32.791Z,98200.84
2023-09-03T23:49:35.518Z,98197.53
2023-09-03T23:51:38.807Z,98192.44
2023-09-03T23:53:45.167Z,98189.09
2023-09-03T23:55:49.244Z,98188.44
2023-09-03T23:57:51.923Z,98178.81
2023-09-03T23:59:54.571Z,98179.72
